createdAt,value
2022-08-14T00:02:27.875Z,101171.94
2022-08-14T00:05:00.379Z,101181.63
2022-08-14T00:07:28.784Z,101180.56
2022-08-14T00:10:50.179Z,101173.69
2022-08-14T00:12:56.872Z,101150.88
2022-08-14T00:15:43.292Z,101161.22
2022-08-14T00:18:30.611Z,101165.78
2022-08-14T00:21:10.851Z,101165.00
2022-08-14T00:23:40.339Z,101159.59
2022-08-14T00:26:21.636Z,101150.09
2022-08-14T00:28:50.613Z,101150.13
2022-08-14T00:31:20.035Z,101149.22
2022-08-14T00:34:36.626Z,101139.75
2022-08-14T00:36:52.733Z,101125.78
2022-08-14T00:39:22.036Z,101144.22
2022-08-14T00:41:51.759Z,101138.84
2022-08-14T00:44:31.959Z,101137.22
2022-08-14T00:47:02.476Z,101134.72
2022-08-14T00:49:37.991Z,101117.38
2022-08-14T00:52:11.436Z,101133.00
2022-08-14T00:54:43.354Z,101130.38
2022-08-14T00:57:13.624Z,101130.56
2022-08-14T00:59:42.205Z,101119.13
2022-08-14T01:02:11.730Z,101099.81
2022-08-14T01:04:53.432Z,101098.94
2022-08-14T01:07:27.255Z,101113.88
2022-08-14T01:10:01.684Z,101090.13
2022-08-14T01:12:32.757Z,101107.63
2022-08-14T01:15:03.206Z,101105.28
2022-08-14T01:17:49.750Z,101066.03
2022-08-14T01:20:39.971Z,101101.00
2022-08-14T01:23:16.337Z,101092.34
2022-08-14T01:25:51.082Z,101094.38
2022-08-14T01:28:46.210Z,101103.34
2022-08-14T01:31:14.264Z,101098.75
2022-08-14T01:33:59.781Z,101055.72
2022-08-14T01:36:35.455Z,101069.94
2022-08-14T01:39:09.532Z,101095.47
2022-08-14T01:41:43.370Z,101098.19
2022-08-14T01:44:32.551Z,101071.13
2022-08-14T01:47:12.324Z,101078.28
2022-08-14T01:50:00.024Z,101087.22
2022-08-14T01:52:58.473Z,101078.34
2022-08-14T01:55:32.249Z,101080.13
2022-08-14T01:58:20.079Z,101095.88
2022-08-14T02:00:54.439Z,101073.25
2022-08-14T02:03:29.880Z,101086.28
2022-08-14T02:06:03.577Z,101085.41
2022-08-14T02:08:52.891Z,101081.06
2022-08-14T02:11:26.967Z,101058.41
2022-08-14T02:14:07.546Z,101064.69
2022-08-14T02:16:39.427Z,101074.25
2022-08-14T02:19:11.835Z,101060.41
2022-08-14T02:21:46.860Z,101068.19
2022-08-14T02:24:39.753Z,101079.00
2022-08-14T02:28:25.238Z,101062.22
2022-08-14T02:30:02.031Z,101065.16
2022-08-14T02:32:46.756Z,101080.19
2022-08-14T02:35:18.914Z,101075.78
2022-08-14T02:37:49.582Z,101051.16
2022-08-14T02:40:19.976Z,101069.75
2022-08-14T02:42:55.081Z,101060.88
2022-08-14T02:45:38.397Z,101054.88
2022-08-14T02:49:02.726Z,101052.41
2022-08-14T02:51:07.208Z,101040.97
2022-08-14T02:53:42.298Z,101057.78
2022-08-14T02:56:30.645Z,101050.56
2022-08-14T02:59:06.507Z,101048.97
2022-08-14T03:01:43.278Z,101049.19
2022-08-14T03:04:20.667Z,101030.63
2022-08-14T03:07:06.204Z,101022.03
2022-08-14T03:10:24.441Z,101043.84
2022-08-14T03:12:32.204Z,101027.34
2022-08-14T03:15:13.912Z,101021.34
2022-08-14T03:17:57.769Z,101044.13
2022-08-14T03:20:28.833Z,101025.84
2022-08-14T03:23:03.252Z,101024.91
2022-08-14T03:25:34.180Z,101045.88
2022-08-14T03:28:08.174Z,101043.41
2022-08-14T03:30:44.664Z,101024.25
2022-08-14T03:33:14.200Z,101021.59
2022-08-14T03:36:05.488Z,101036.44
2022-08-14T03:39:16.103Z,101004.03
2022-08-14T03:41:24.975Z,101020.06
2022-08-14T03:43:57.101Z,101023.50
2022-08-14T03:46:54.428Z,101035.84
2022-08-14T03:49:28.869Z,101030.53
2022-08-14T03:52:01.327Z,101038.44
2022-08-14T03:54:30.348Z,101030.66
2022-08-14T03:57:02.969Z,101020.16
2022-08-14T03:59:32.894Z,101045.78
2022-08-14T04:02:04.453Z,101028.16
2022-08-14T04:04:33.976Z,101041.41
2022-08-14T04:07:03.331Z,101025.50
2022-08-14T04:09:31.687Z,101030.84
2022-08-14T04:11:59.986Z,101004.63
2022-08-14T04:14:30.271Z,101031.88
2022-08-14T04:16:58.596Z,101019.63
2022-08-14T04:19:33.080Z,101009.13
2022-08-14T04:22:07.805Z,101031.06
2022-08-14T04:24:38.169Z,101030.19
2022-08-14T04:27:09.769Z,101008.28
2022-08-14T04:29:39.649Z,101025.69
2022-08-14T04:32:58.019Z,101009.13
2022-08-14T04:34:59.343Z,100987.13
2022-08-14T04:37:46.187Z,100991.59
2022-08-14T04:40:40.502Z,101008.16
2022-08-14T04:43:26.860Z,101001.09
2022-08-14T04:46:11.918Z,101007.28
2022-08-14T04:48:59.689Z,101001.81
2022-08-14T04:51:46.949Z,100979.00
2022-08-14T04:54:18.417Z,100993.13
2022-08-14T04:56:46.731Z,100994.00
2022-08-14T04:59:15.038Z,101010.63
2022-08-14T05:01:48.748Z,101005.31
2022-08-14T05:04:21.523Z,100992.09
2022-08-14T05:06:54.279Z,101004.22
2022-08-14T05:09:24.084Z,100962.94
2022-08-14T05:11:53.065Z,100992.78
2022-08-14T05:14:45.877Z,100983.06
2022-08-14T05:17:12.007Z,100986.34
2022-08-14T05:19:44.958Z,100962.69
2022-08-14T05:22:31.441Z,100994.13
2022-08-14T05:25:00.245Z,100990.44
2022-08-14T05:27:31.221Z,100990.44
2022-08-14T05:30:01.212Z,100989.53
2022-08-14T05:32:29.516Z,100991.88
2022-08-14T05:34:59.451Z,100939.44
2022-08-14T05:37:30.855Z,100991.09
2022-08-14T05:40:01.918Z,100995.50
2022-08-14T05:42:33.929Z,100986.53
2022-08-14T05:45:11.041Z,100990.94
2022-08-14T05:47:43.140Z,100975.09
2022-08-14T05:50:17.393Z,100983.88
2022-08-14T05:52:50.971Z,100972.41
2022-08-14T05:55:22.130Z,100979.28
2022-08-14T05:57:59.697Z,100985.56
2022-08-14T06:00:36.929Z,100993.25
2022-08-14T06:03:11.422Z,100944.81
2022-08-14T06:05:40.303Z,100984.13
2022-08-14T06:08:31.504Z,100950.00
2022-08-14T06:11:09.142Z,100969.75
2022-08-14T06:13:41.124Z,100958.47
2022-08-14T06:16:18.715Z,100988.16
2022-08-14T06:18:52.652Z,100939.91
2022-08-14T06:21:22.610Z,100984.34
2022-08-14T06:23:52.843Z,100976.19
2022-08-14T06:26:22.462Z,100974.28
2022-08-14T06:28:51.829Z,100983.00
2022-08-14T06:31:22.736Z,100975.03
2022-08-14T06:35:09.432Z,100976.44
2022-08-14T06:36:39.780Z,100977.16
2022-08-14T06:39:10.560Z,100975.25
2022-08-14T06:41:58.559Z,100949.66
2022-08-14T06:44:30.565Z,100952.06
2022-08-14T06:47:03.428Z,100955.16
2022-08-14T06:49:40.089Z,100955.97
2022-08-14T06:52:16.108Z,100960.91
2022-08-14T06:54:46.771Z,100959.03
2022-08-14T06:57:15.056Z,100924.00
2022-08-14T06:59:43.381Z,100960.59
2022-08-14T07:02:29.740Z,100965.50
2022-08-14T07:05:20.981Z,100945.97
2022-08-14T07:07:52.716Z,100953.63
2022-08-14T07:10:25.392Z,100964.75
2022-08-14T07:13:01.423Z,100954.78
2022-08-14T07:15:34.380Z,100910.81
2022-08-14T07:18:09.662Z,100938.22
2022-08-14T07:20:38.825Z,100959.09
2022-08-14T07:23:11.143Z,100949.69
2022-08-14T07:25:52.290Z,100951.91
2022-08-14T07:28:24.543Z,100949.16
2022-08-14T07:30:57.600Z,100947.34
2022-08-14T07:33:41.878Z,100943.91
2022-08-14T07:36:27.340Z,100940.84
2022-08-14T07:38:59.706Z,100923.84
2022-08-14T07:41:33.507Z,100923.28
2022-08-14T07:44:32.482Z,100925.44
2022-08-14T07:46:51.915Z,100941.53
2022-08-14T07:49:20.889Z,100923.53
2022-08-14T07:51:52.548Z,100910.06
2022-08-14T07:54:23.480Z,100933.28
2022-08-14T07:57:00.609Z,100912.88
2022-08-14T07:59:42.523Z,100906.69
2022-08-14T08:02:18.762Z,100928.31
2022-08-14T08:04:54.668Z,100920.13
2022-08-14T08:07:29.793Z,100921.63
2022-08-14T08:10:02.356Z,100935.19
2022-08-14T08:12:33.191Z,100929.13
2022-08-14T08:15:07.301Z,100932.50
2022-08-14T08:17:42.542Z,100920.94
2022-08-14T08:20:27.163Z,100915.72
2022-08-14T08:23:00.364Z,100918.50
2022-08-14T08:25:40.097Z,100898.78
2022-08-14T08:28:25.085Z,100881.50
2022-08-14T08:30:56.497Z,100892.50
2022-08-14T08:33:31.804Z,100892.56
2022-08-14T08:36:03.684Z,100884.22
2022-08-14T08:39:16.446Z,100898.72
2022-08-14T08:41:20.341Z,100895.91
2022-08-14T08:43:52.607Z,100905.16
2022-08-14T08:46:23.979Z,100888.16
2022-08-14T08:51:30.834Z,100887.69
2022-08-14T08:54:05.461Z,100884.47
2022-08-14T08:56:40.563Z,100866.78
2022-08-14T08:59:30.913Z,100881.97
2022-08-14T09:02:01.910Z,100888.34
2022-08-14T09:04:45.272Z,100880.09
2022-08-14T09:07:27.008Z,100896.44
2022-08-14T09:09:59.090Z,100895.28
2022-08-14T09:12:31.562Z,100855.66
2022-08-14T09:15:12.340Z,100880.53
2022-08-14T09:17:42.187Z,100859.97
2022-08-14T09:20:19.354Z,100875.75
2022-08-14T09:22:56.638Z,100857.25
2022-08-14T09:25:58.621Z,100876.88
2022-08-14T09:28:15.309Z,100873.59
2022-08-14T09:30:50.201Z,100869.81
2022-08-14T09:33:35.509Z,100861.22
2022-08-14T09:36:47.917Z,100858.66
2022-08-14T09:39:38.478Z,100858.97
2022-08-14T09:42:33.452Z,100853.28
2022-08-14T09:45:16.711Z,100838.13
2022-08-14T09:47:51.938Z,100825.94
2022-08-14T09:50:28.351Z,100830.69
2022-08-14T09:52:59.971Z,100831.84
2022-08-14T09:55:36.809Z,100825.50
2022-08-14T09:58:19.928Z,100818.88
2022-08-14T10:00:53.980Z,100808.13
2022-08-14T10:03:34.398Z,100824.28
2022-08-14T10:06:12.143Z,100825.50
2022-08-14T10:08:50.865Z,100824.28
2022-08-14T10:11:23.874Z,100803.19
2022-08-14T10:13:55.901Z,100796.09
2022-08-14T10:16:33.670Z,100804.09
2022-08-14T10:19:09.275Z,100815.72
2022-08-14T10:23:11.298Z,100810.16
2022-08-14T10:24:37.376Z,100809.88
2022-08-14T10:27:18.255Z,100800.28
2022-08-14T10:29:51.648Z,100796.94
2022-08-14T10:32:29.108Z,100796.44
2022-08-14T10:35:13.998Z,100793.72
2022-08-14T10:37:48.128Z,100796.53
2022-08-14T10:40:37.045Z,100784.19
2022-08-14T10:43:23.886Z,100788.34
2022-08-14T10:46:21.543Z,100771.50
2022-08-14T10:49:04.206Z,100772.81
2022-08-14T10:51:36.047Z,100784.28
2022-08-14T10:54:26.010Z,100782.06
2022-08-14T10:56:58.477Z,100773.63
2022-08-14T10:59:34.972Z,100754.13
2022-08-14T11:02:17.647Z,100762.66
2022-08-14T11:05:11.375Z,100769.16
2022-08-14T11:07:43.769Z,100761.22
2022-08-14T11:10:15.224Z,100738.50
2022-08-14T11:12:48.021Z,100760.81
2022-08-14T11:15:19.337Z,100754.91
2022-08-14T11:17:48.908Z,100765.06
2022-08-14T11:20:24.379Z,100768.97
2022-08-14T11:22:58.904Z,100755.91
2022-08-14T11:25:43.273Z,100742.72
2022-08-14T11:28:19.038Z,100758.63
2022-08-14T11:30:54.006Z,100753.00
2022-08-14T11:33:31.146Z,100742.78
2022-08-14T11:36:01.963Z,100741.34
2022-08-14T11:38:38.237Z,100716.78
2022-08-14T11:41:07.517Z,100720.50
2022-08-14T11:43:41.878Z,100719.81
2022-08-14T11:46:17.882Z,100700.69
2022-08-14T11:49:03.620Z,100710.34
2022-08-14T11:51:35.931Z,100695.91
2022-08-14T11:54:20.644Z,100699.56
2022-08-14T11:57:04.422Z,100688.47
2022-08-14T11:59:34.325Z,100699.22
2022-08-14T12:02:39.050Z,100688.81
2022-08-14T12:05:00.623Z,100682.53
2022-08-14T12:07:33.312Z,100677.56
2022-08-14T12:10:25.713Z,100674.81
2022-08-14T12:12:56.490Z,100675.25
2022-08-14T12:15:34.836Z,100657.25
2022-08-14T12:18:05.062Z,100661.66
2022-08-14T12:20:45.837Z,100675.88
2022-08-14T12:23:27.880Z,100675.72
2022-08-14T12:26:31.670Z,100645.84
2022-08-14T12:29:09.219Z,100659.34
2022-08-14T12:31:44.428Z,100647.41
2022-08-14T12:34:20.127Z,100663.06
2022-08-14T12:36:49.268Z,100670.00
2022-08-14T12:39:23.975Z,100636.97
2022-08-14T12:42:01.655Z,100656.47
2022-08-14T12:44:35.988Z,100650.03
2022-08-14T12:47:07.695Z,100644.09
2022-08-14T12:49:36.518Z,100638.56
2022-08-14T12:52:12.214Z,100623.47
2022-08-14T12:55:01.684Z,100633.16
2022-08-14T12:57:42.952Z,100626.50
2022-08-14T13:00:22.616Z,100637.19
2022-08-14T13:02:56.901Z,100638.75
2022-08-14T13:05:29.077Z,100624.53
2022-08-14T13:07:59.353Z,100606.97
2022-08-14T13:10:47.756Z,100619.97
2022-08-14T13:13:23.609Z,100625.09
2022-08-14T13:15:57.286Z,100628.78
2022-08-14T13:18:28.021Z,100618.47
2022-08-14T13:21:02.183Z,100632.06
2022-08-14T13:23:37.323Z,100610.09
2022-08-14T13:26:07.651Z,100623.00
2022-08-14T13:29:02.466Z,100608.03
2022-08-14T13:31:34.501Z,100605.28
2022-08-14T13:34:04.526Z,100601.63
2022-08-14T13:36:54.679Z,100595.19
2022-08-14T13:39:26.125Z,100614.19
2022-08-14T13:41:55.724Z,100577.63
2022-08-14T13:44:28.732Z,100571.22
2022-08-14T13:46:58.262Z,100593.84
2022-08-14T13:49:29.273Z,100599.50
2022-08-14T13:52:04.831Z,100583.88
2022-08-14T13:54:55.719Z,100596.59
2022-08-14T13:57:30.425Z,100589.44
2022-08-14T14:00:04.681Z,100576.25
2022-08-14T14:02:42.531Z,100565.66
2022-08-14T14:05:18.739Z,100567.50
2022-08-14T14:07:53.031Z,100560.31
2022-08-14T14:10:28.591Z,100560.84
2022-08-14T14:12:56.997Z,100570.25
2022-08-14T14:15:28.699Z,100566.81
2022-08-14T14:18:03.224Z,100567.91
2022-08-14T14:20:35.178Z,100562.88
2022-08-14T14:23:11.689Z,100566.13
2022-08-14T14:25:49.279Z,100559.75
2022-08-14T14:28:32.381Z,100557.03
2022-08-14T14:31:06.608Z,100553.13
2022-08-14T14:33:52.201Z,100558.75
2022-08-14T14:36:31.028Z,100556.19
2022-08-14T14:39:02.157Z,100553.78
2022-08-14T14:41:37.629Z,100547.78
2022-08-14T14:44:09.240Z,100545.03
2022-08-14T14:46:42.159Z,100550.41
2022-08-14T14:49:14.463Z,100515.06
2022-08-14T14:51:46.835Z,100535.31
2022-08-14T14:54:31.862Z,100530.84
2022-08-14T14:57:08.998Z,100527.78
2022-08-14T14:59:38.903Z,100531.88
2022-08-14T15:02:09.711Z,100526.38
2022-08-14T15:04:43.844Z,100507.50
2022-08-14T15:07:13.104Z,100525.75
2022-08-14T15:09:44.793Z,100520.72
2022-08-14T15:12:56.502Z,100522.47
2022-08-14T15:15:09.092Z,100504.28
2022-08-14T15:17:41.510Z,100501.00
2022-08-14T15:20:17.526Z,100512.75
2022-08-14T15:23:00.967Z,100513.63
2022-08-14T15:25:37.067Z,100510.66
2022-08-14T15:28:12.564Z,100510.50
2022-08-14T15:30:42.429Z,100509.03
2022-08-14T15:33:13.610Z,100495.09
2022-08-14T15:35:46.074Z,100504.34
2022-08-14T15:38:17.594Z,100504.97
2022-08-14T15:40:55.911Z,100502.78
2022-08-14T15:43:27.303Z,100493.69
2022-08-14T15:45:59.354Z,100497.78
2022-08-14T15:48:32.207Z,100499.06
2022-08-14T15:51:00.488Z,100506.56
2022-08-14T15:53:31.684Z,100497.97
2022-08-14T15:56:00.542Z,100496.22
2022-08-14T15:58:30.198Z,100474.16
2022-08-14T16:01:31.234Z,100488.50
2022-08-14T16:04:07.309Z,100486.41
2022-08-14T16:06:35.731Z,100483.19
2022-08-14T16:09:10.668Z,100487.09
2022-08-14T16:11:43.278Z,100485.88
2022-08-14T16:14:20.595Z,100489.41
2022-08-14T16:16:59.717Z,100477.94
2022-08-14T16:19:32.406Z,100477.00
2022-08-14T16:22:59.241Z,100473.03
2022-08-14T16:25:05.178Z,100475.28
2022-08-14T16:27:40.718Z,100476.53
2022-08-14T16:30:24.920Z,100472.66
2022-08-14T16:32:59.136Z,100467.84
2022-08-14T16:35:42.508Z,100462.44
2022-08-14T16:38:46.101Z,100469.84
2022-08-14T16:41:18.251Z,100465.50
2022-08-14T16:43:59.315Z,100460.53
2022-08-14T16:46:31.268Z,100461.00
2022-08-14T16:49:01.630Z,100439.88
2022-08-14T16:51:34.772Z,100459.53
2022-08-14T16:54:20.577Z,100456.28
2022-08-14T16:56:49.682Z,100458.88
2022-08-14T16:59:30.337Z,100458.63
2022-08-14T17:02:12.729Z,100446.47
2022-08-14T17:04:49.199Z,100442.31
2022-08-14T17:07:19.047Z,100452.78
2022-08-14T17:09:48.891Z,100435.41
2022-08-14T17:12:33.686Z,100439.84
2022-08-14T17:15:10.484Z,100440.81
2022-08-14T17:17:58.332Z,100433.75
2022-08-14T17:20:53.266Z,100438.06
2022-08-14T17:23:19.175Z,100441.88
2022-08-14T17:25:49.401Z,100435.09
2022-08-14T17:28:52.304Z,100423.47
2022-08-14T17:31:12.312Z,100433.88
2022-08-14T17:33:44.658Z,100431.66
2022-08-14T17:36:22.960Z,100422.22
2022-08-14T17:39:06.891Z,100414.88
2022-08-14T17:41:43.989Z,100432.75
2022-08-14T17:44:21.337Z,100436.00
2022-08-14T17:46:55.333Z,100416.53
2022-08-14T17:49:28.333Z,100410.63
2022-08-14T17:52:07.543Z,100429.19
2022-08-14T17:54:52.486Z,100424.16
2022-08-14T17:57:24.427Z,100433.00
2022-08-14T17:59:59.359Z,100421.97
2022-08-14T18:02:31.584Z,100428.50
2022-08-14T18:05:03.124Z,100438.84
2022-08-14T18:07:59.624Z,100428.19
2022-08-14T18:10:51.793Z,100432.75
2022-08-14T18:13:12.633Z,100417.72
2022-08-14T18:15:44.344Z,100430.38
2022-08-14T18:18:19.906Z,100431.13
2022-08-14T18:21:40.163Z,100434.47
2022-08-14T18:23:42.764Z,100434.59
2022-08-14T18:26:37.107Z,100440.97
2022-08-14T18:29:03.152Z,100431.34
2022-08-14T18:31:45.323Z,100428.56
2022-08-14T18:34:30.832Z,100437.00
2022-08-14T18:37:17.850Z,100423.22
2022-08-14T18:40:01.162Z,100440.19
2022-08-14T18:42:45.769Z,100436.06
2022-08-14T18:45:19.140Z,100428.75
2022-08-14T18:48:28.736Z,100441.94
2022-08-14T18:51:45.986Z,100432.78
2022-08-14T18:54:29.741Z,100438.31
2022-08-14T18:57:03.357Z,100442.31
2022-08-14T18:59:39.353Z,100431.19
2022-08-14T19:02:43.375Z,100438.41
2022-08-14T19:05:13.474Z,100433.28
2022-08-14T19:07:44.376Z,100451.72
2022-08-14T19:10:33.421Z,100425.38
2022-08-14T19:13:12.085Z,100442.63
2022-08-14T19:15:44.278Z,100446.47
2022-08-14T19:18:29.371Z,100431.69
2022-08-14T19:21:00.659Z,100440.13
2022-08-14T19:23:43.266Z,100442.72
2022-08-14T19:26:36.173Z,100405.06
2022-08-14T19:29:38.035Z,100434.41
2022-08-14T19:32:40.784Z,100449.22
2022-08-14T19:35:49.746Z,100432.19
2022-08-14T19:38:59.623Z,100445.47
2022-08-14T19:41:34.149Z,100446.75
2022-08-14T19:44:14.858Z,100420.53
2022-08-14T19:47:00.478Z,100436.47
2022-08-14T19:50:24.964Z,100443.38
2022-08-14T19:52:35.334Z,100442.53
2022-08-14T19:55:17.390Z,100441.78
2022-08-14T19:57:52.347Z,100448.34
2022-08-14T20:00:29.491Z,100451.59
2022-08-14T20:03:11.936Z,100432.47
2022-08-14T20:05:46.381Z,100451.78
2022-08-14T20:11:07.164Z,100446.59
2022-08-14T20:11:20.525Z,100450.81
2022-08-14T20:14:09.481Z,100436.31
2022-08-14T20:16:42.114Z,100425.72
2022-08-14T20:19:17.888Z,100426.66
2022-08-14T20:22:00.641Z,100435.75
2022-08-14T20:24:45.142Z,100424.84
2022-08-14T20:27:44.356Z,100440.84
2022-08-14T20:30:37.604Z,100454.91
2022-08-14T20:33:11.042Z,100397.97
2022-08-14T20:35:44.264Z,100442.78
2022-08-14T20:38:31.578Z,100436.69
2022-08-14T20:41:06.674Z,100421.28
2022-08-14T20:43:55.428Z,100436.78
2022-08-14T20:46:29.638Z,100411.31
2022-08-14T20:49:01.242Z,100419.66
2022-08-14T20:51:38.891Z,100423.72
2022-08-14T20:54:34.460Z,100420.84
2022-08-14T20:57:10.415Z,100429.84
2022-08-14T20:59:43.293Z,100427.88
2022-08-14T21:02:34.684Z,100402.94
2022-08-14T21:05:19.351Z,100419.09
2022-08-14T21:07:50.406Z,100416.78
2022-08-14T21:10:33.421Z,100421.81
2022-08-14T21:13:26.566Z,100423.97
2022-08-14T21:15:57.936Z,100414.69
2022-08-14T21:18:32.261Z,100419.81
2022-08-14T21:21:11.667Z,100413.22
2022-08-14T21:23:54.540Z,100414.53
2022-08-14T21:26:51.370Z,100386.81
2022-08-14T21:29:14.517Z,100396.78
2022-08-14T21:31:55.860Z,100410.00
2022-08-14T21:34:27.354Z,100397.97
2022-08-14T21:37:09.837Z,100385.03
2022-08-14T21:39:39.037Z,100410.00
2022-08-14T21:42:10.883Z,100420.16
2022-08-14T21:44:43.846Z,100394.97
2022-08-14T21:47:16.557Z,100422.09
2022-08-14T21:49:48.097Z,100404.91
2022-08-14T21:52:49.607Z,100408.00
2022-08-14T21:55:13.849Z,100424.19
2022-08-14T21:58:38.379Z,100412.25
2022-08-14T22:00:42.241Z,100396.59
2022-08-14T22:03:17.318Z,100419.81
2022-08-14T22:05:51.906Z,100391.09
2022-08-14T22:08:22.413Z,100407.34
2022-08-14T22:10:57.501Z,100391.78
2022-08-14T22:13:32.113Z,100389.75
2022-08-14T22:16:02.451Z,100400.91
2022-08-14T22:18:31.409Z,100384.66
2022-08-14T22:21:05.525Z,100404.78
2022-08-14T22:23:35.456Z,100399.66
2022-08-14T22:26:04.896Z,100379.91
2022-08-14T22:28:33.799Z,100377.41
2022-08-14T22:31:10.528Z,100402.59
2022-08-14T22:33:43.008Z,100391.09
2022-08-14T22:36:42.238Z,100377.75
2022-08-14T22:39:11.019Z,100393.41
2022-08-14T22:41:42.672Z,100369.69
2022-08-14T22:44:17.822Z,100374.63
2022-08-14T22:46:46.612Z,100386.63
2022-08-14T22:50:31.239Z,100384.72
2022-08-14T22:52:33.291Z,100356.13
2022-08-14T22:54:59.074Z,100385.69
2022-08-14T22:57:37.224Z,100351.91
2022-08-14T23:00:16.352Z,100369.78
2022-08-14T23:02:46.778Z,100376.56
2022-08-14T23:05:16.335Z,100365.28
2022-08-14T23:08:58.889Z,100373.63
2022-08-14T23:10:35.132Z,100373.00
2022-08-14T23:13:07.516Z,100366.09
2022-08-14T23:15:38.267Z,100379.25
2022-08-14T23:18:13.136Z,100372.22
2022-08-14T23:20:42.435Z,100365.56
2022-08-14T23:23:22.882Z,100371.97
2022-08-14T23:25:58.700Z,100384.94
2022-08-14T23:28:56.930Z,100358.00
2022-08-14T23:31:35.745Z,100382.81
2022-08-14T23:34:07.115Z,100360.72
2022-08-14T23:36:53.030Z,100382.41
2022-08-14T23:39:29.963Z,100386.56
2022-08-14T23:42:04.326Z,100363.50
2022-08-14T23:44:36.832Z,100375.81
2022-08-14T23:47:12.007Z,100378.06
2022-08-14T23:50:03.259Z,100362.94
2022-08-14T23:52:51.233Z,100374.22
2022-08-14T23:55:31.712Z,100371.78
2022-08-14T23:58:01.097Z,100367.88
